Zealand Delilah — PBZI — position and weather

sailwx.info

Track history (hours):
 
Tides and Currents Weather Stations Pressure Air Temp Water Temp Dewpoint Dewpoint Depression Visibility Wind Speed Wind Dir Waves Ship Positions

Zealand Delilah

Last reported at 2014-Nov-14 17:31 UTC. Time now 2014-Nov-23 10:01 UTC.
Position N 42°30' W 080°06'.
Warning: this ship's position is 8 days out of date.

Length 135 m; draft 5.1 m.

Type: Ship. MMSI: 245935000.

Date/timePositionNaut miles runAvg speedWind from/ knotsBaromVisibWave heightAir tempDewpointWater temp
2014-Nov-14 17:31N 42°30' W 080°06'183 6.8
2014-Nov-13 14:33N 44°01' W 076°28'1111.1
2014-Nov-13 13:33N 44°10' W 076°19'1410.8
2014-Nov-13 12:19N 44°16' W 076°02'7 8.7
2014-Nov-13 11:33N 44°21' W 075°55'1110.8
2014-Nov-13 10:33N 44°29' W 075°47'1110.7
2014-Nov-13 09:33N 44°38' W 075°37'60 7.5
2014-Nov-13 01:31N 45°08' W 074°24'1111.4
2014-Nov-13 00:33N 45°14' W 074°11'4 3.8
2014-Nov-12 23:33N 45°13' W 074°05'0 0.0
2014-Nov-12 22:33N 45°13' W 074°05'0 0.0
2014-Nov-12 21:33N 45°13' W 074°05'0 0.0
2014-Nov-12 20:33N 45°13' W 074°05'0 0.0
2014-Nov-12 19:33N 45°13' W 074°05'0 0.0
2014-Nov-12 18:33N 45°13' W 074°05'0 0.0
2014-Nov-12 17:33N 45°13' W 074°05'0 0.0
2014-Nov-12 16:33N 45°13' W 074°05'0 0.0
2014-Nov-12 15:33N 45°13' W 074°05'0 0.0
2014-Nov-12 14:33N 45°13' W 074°05'0 0.0
2014-Nov-12 13:33N 45°13' W 074°05'0 0.0
2014-Nov-12 12:33N 45°13' W 074°05'0 0.0
2014-Nov-12 11:33N 45°13' W 074°05'0 0.0
2014-Nov-12 10:33N 45°13' W 074°05'0 0.0
2014-Nov-12 09:33N 45°13' W 074°05'0 0.0
2014-Nov-12 08:33N 45°13' W 074°05'0 0.0
2014-Nov-12 07:33N 45°13' W 074°05'0 0.0
2014-Nov-12 06:33N 45°13' W 074°05'0 0.0
2014-Nov-12 05:33N 45°13' W 074°05'0 0.0
2014-Nov-12 04:33N 45°13' W 074°05'0 0.0
2014-Nov-12 03:33N 45°13' W 074°05'0 0.0
2014-Nov-12 02:33N 45°13' W 074°05'0 0.0
2014-Nov-12 01:33N 45°13' W 074°05'0 0.0
2014-Nov-12 00:33N 45°13' W 074°05'0 0.0
2014-Nov-11 23:33N 45°13' W 074°05'0 0.0
2014-Nov-11 22:33N 45°13' W 074°05'0 0.0
2014-Nov-11 21:33N 45°13' W 074°05'0 0.0
2014-Nov-11 20:33N 45°13' W 074°05'0 0.0
2014-Nov-11 19:33N 45°13' W 074°05'0 0.0
2014-Nov-11 18:33N 45°13' W 074°05'0 0.0
2014-Nov-11 17:33N 45°13' W 074°05'0 0.0
2014-Nov-11 16:33N 45°13' W 074°05'0 0.0
2014-Nov-11 15:33N 45°13' W 074°05'0 0.0
2014-Nov-11 14:33N 45°13' W 074°05'0 0.0
2014-Nov-11 13:33N 45°13' W 074°05'0 0.0
2014-Nov-11 12:33N 45°13' W 074°05'0 0.0
2014-Nov-11 11:33N 45°13' W 074°05'0 0.0
2014-Nov-11 10:33N 45°13' W 074°05'0 0.0
2014-Nov-11 09:33N 45°13' W 074°05'0 0.0
2014-Nov-11 08:33N 45°13' W 074°05'0 0.0
2014-Nov-11 07:33N 45°13' W 074°05'0 0.0
2014-Nov-11 06:33N 45°13' W 074°05'0 0.0
2014-Nov-11 05:34N 45°13' W 074°05'0 0.0
2014-Nov-11 04:33N 45°13' W 074°05'0 0.0
2014-Nov-11 03:30N 45°13' W 074°05'0 0.0
2014-Nov-11 02:34N 45°13' W 074°05'0 0.0
2014-Nov-11 01:32N 45°13' W 074°05'0 0.0
2014-Nov-11 00:29N 45°13' W 074°05'0 0.0
2014-Nov-10 23:32N 45°13' W 074°05'0 0.0
2014-Nov-10 22:32N 45°13' W 074°05'0 0.0
2014-Nov-10 21:31N 45°13' W 074°05'0 0.0
2014-Nov-10 20:34N 45°13' W 074°05'0 0.0
2014-Nov-10 19:33N 45°13' W 074°05'0 0.0
2014-Nov-10 18:33N 45°13' W 074°05'0 0.0
2014-Nov-10 17:31N 45°13' W 074°05'0 0.0
2014-Nov-10 16:33N 45°13' W 074°05'3 2.7
2014-Nov-10 15:32N 45°14' W 074°01'6 6.3
2014-Nov-10 14:33N 45°18' W 073°56'1 1.2
2014-Nov-10 13:33N 45°19' W 073°55'8 8.3
2014-Nov-10 12:33N 45°24' W 073°45'7 6.6
2014-Nov-10 11:30N 45°24' W 073°36'2 1.9
2014-Nov-10 10:33N 45°24' W 073°33'9 1.6
2014-Nov-10 04:33N 45°34' W 073°31'0 0.0
2014-Nov-10 03:32N 45°34' W 073°31'0 0.0
2014-Nov-10 02:31N 45°34' W 073°31'0 0.0
2014-Nov-10 01:33N 45°34' W 073°31'5 4.6
2014-Nov-10 00:33N 45°38' W 073°29'9 9.5
2014-Nov-09 23:33N 45°46' W 073°22'1010.1
2014-Nov-09 22:33N 45°54' W 073°13'10 9.4
2014-Nov-09 21:33N 46°03' W 073°09'11 8.7
2014-Nov-09 20:17N 46°10' W 072°56'7 9.8
2014-Nov-09 19:33N 46°13' W 072°47'9 9.4
2014-Nov-09 18:34N 46°18' W 072°35'8 8.2
2014-Nov-09 17:34N 46°23' W 072°26'9 8.7
2014-Nov-09 16:34N 46°27' W 072°15'9 8.7
2014-Nov-09 15:33N 46°34' W 072°07'  
Track history (hours):
 
Tides and Currents Weather Stations Pressure Air Temp Water Temp Dewpoint Dewpoint Depression Visibility Wind Speed Wind Dir Waves Ship Positions

Zealand Delilah

Last reported at 2014-Nov-14 17:31 UTC. Time now 2014-Nov-23 10:01 UTC.
Position N 42°30' W 080°06'.
Warning: this ship's position is 8 days out of date.

Length 135 m; draft 5.1 m.

Type: Ship. MMSI: 245935000.

Date/timePositionNaut miles runAvg speedWind from/ knotsBaromVisibWave heightAir tempDewpointWater temp
2014-Nov-14 17:31N 42°30' W 080°06'183 6.8
2014-Nov-13 14:33N 44°01' W 076°28'1111.1
2014-Nov-13 13:33N 44°10' W 076°19'1410.8
2014-Nov-13 12:19N 44°16' W 076°02'7 8.7
2014-Nov-13 11:33N 44°21' W 075°55'1110.8
2014-Nov-13 10:33N 44°29' W 075°47'1110.7
2014-Nov-13 09:33N 44°38' W 075°37'60 7.5
2014-Nov-13 01:31N 45°08' W 074°24'1111.4
2014-Nov-13 00:33N 45°14' W 074°11'4 3.8
2014-Nov-12 23:33N 45°13' W 074°05'0 0.0
2014-Nov-12 22:33N 45°13' W 074°05'0 0.0
2014-Nov-12 21:33N 45°13' W 074°05'0 0.0
2014-Nov-12 20:33N 45°13' W 074°05'0 0.0
2014-Nov-12 19:33N 45°13' W 074°05'0 0.0
2014-Nov-12 18:33N 45°13' W 074°05'0 0.0
2014-Nov-12 17:33N 45°13' W 074°05'0 0.0
2014-Nov-12 16:33N 45°13' W 074°05'0 0.0
2014-Nov-12 15:33N 45°13' W 074°05'0 0.0
2014-Nov-12 14:33N 45°13' W 074°05'0 0.0
2014-Nov-12 13:33N 45°13' W 074°05'0 0.0
2014-Nov-12 12:33N 45°13' W 074°05'0 0.0
2014-Nov-12 11:33N 45°13' W 074°05'0 0.0
2014-Nov-12 10:33N 45°13' W 074°05'0 0.0
2014-Nov-12 09:33N 45°13' W 074°05'0 0.0
2014-Nov-12 08:33N 45°13' W 074°05'0 0.0
2014-Nov-12 07:33N 45°13' W 074°05'0 0.0
2014-Nov-12 06:33N 45°13' W 074°05'0 0.0
2014-Nov-12 05:33N 45°13' W 074°05'0 0.0
2014-Nov-12 04:33N 45°13' W 074°05'0 0.0
2014-Nov-12 03:33N 45°13' W 074°05'0 0.0
2014-Nov-12 02:33N 45°13' W 074°05'0 0.0
2014-Nov-12 01:33N 45°13' W 074°05'0 0.0
2014-Nov-12 00:33N 45°13' W 074°05'0 0.0
2014-Nov-11 23:33N 45°13' W 074°05'0 0.0
2014-Nov-11 22:33N 45°13' W 074°05'0 0.0
2014-Nov-11 21:33N 45°13' W 074°05'0 0.0
2014-Nov-11 20:33N 45°13' W 074°05'0 0.0
2014-Nov-11 19:33N 45°13' W 074°05'0 0.0
2014-Nov-11 18:33N 45°13' W 074°05'0 0.0
2014-Nov-11 17:33N 45°13' W 074°05'0 0.0
2014-Nov-11 16:33N 45°13' W 074°05'0 0.0
2014-Nov-11 15:33N 45°13' W 074°05'0 0.0
2014-Nov-11 14:33N 45°13' W 074°05'0 0.0
2014-Nov-11 13:33N 45°13' W 074°05'0 0.0
2014-Nov-11 12:33N 45°13' W 074°05'0 0.0
2014-Nov-11 11:33N 45°13' W 074°05'0 0.0
2014-Nov-11 10:33N 45°13' W 074°05'0 0.0
2014-Nov-11 09:33N 45°13' W 074°05'0 0.0
2014-Nov-11 08:33N 45°13' W 074°05'0 0.0
2014-Nov-11 07:33N 45°13' W 074°05'0 0.0
2014-Nov-11 06:33N 45°13' W 074°05'0 0.0
2014-Nov-11 05:34N 45°13' W 074°05'0 0.0
2014-Nov-11 04:33N 45°13' W 074°05'0 0.0
2014-Nov-11 03:30N 45°13' W 074°05'0 0.0
2014-Nov-11 02:34N 45°13' W 074°05'0 0.0
2014-Nov-11 01:32N 45°13' W 074°05'0 0.0
2014-Nov-11 00:29N 45°13' W 074°05'0 0.0
2014-Nov-10 23:32N 45°13' W 074°05'0 0.0
2014-Nov-10 22:32N 45°13' W 074°05'0 0.0
2014-Nov-10 21:31N 45°13' W 074°05'0 0.0
2014-Nov-10 20:34N 45°13' W 074°05'0 0.0
2014-Nov-10 19:33N 45°13' W 074°05'0 0.0
2014-Nov-10 18:33N 45°13' W 074°05'0 0.0
2014-Nov-10 17:31N 45°13' W 074°05'0 0.0
2014-Nov-10 16:33N 45°13' W 074°05'3 2.7
2014-Nov-10 15:32N 45°14' W 074°01'6 6.3
2014-Nov-10 14:33N 45°18' W 073°56'1 1.2
2014-Nov-10 13:33N 45°19' W 073°55'8 8.3
2014-Nov-10 12:33N 45°24' W 073°45'7 6.6
2014-Nov-10 11:30N 45°24' W 073°36'2 1.9
2014-Nov-10 10:33N 45°24' W 073°33'9 1.6
2014-Nov-10 04:33N 45°34' W 073°31'0 0.0
2014-Nov-10 03:32N 45°34' W 073°31'0 0.0
2014-Nov-10 02:31N 45°34' W 073°31'0 0.0
2014-Nov-10 01:33N 45°34' W 073°31'5 4.6
2014-Nov-10 00:33N 45°38' W 073°29'9 9.5
2014-Nov-09 23:33N 45°46' W 073°22'1010.1
2014-Nov-09 22:33N 45°54' W 073°13'10 9.4
2014-Nov-09 21:33N 46°03' W 073°09'11 8.7
2014-Nov-09 20:17N 46°10' W 072°56'7 9.8
2014-Nov-09 19:33N 46°13' W 072°47'9 9.4
2014-Nov-09 18:34N 46°18' W 072°35'8 8.2
2014-Nov-09 17:34N 46°23' W 072°26'9 8.7
2014-Nov-09 16:34N 46°27' W 072°15'9 8.7
2014-Nov-09 15:33N 46°34' W 072°07'  

Dump ship's entire track history